sensor_id;sensor_type;location;lat;lon;timestamp;P1;durP1;ratioP1;P2;durP2;ratioP2
26780;SDS011;14366;49.184;8.054;2023-06-14T00:00:36;8.40;;;3.70;;
26780;SDS011;14366;49.184;8.054;2023-06-14T00:11:17;5.75;;;4.28;;
26780;SDS011;14366;49.184;8.054;2023-06-14T00:16:52;4.70;;;3.90;;
26780;SDS011;14366;49.184;8.054;2023-06-14T00:22:28;4.30;;;3.70;;
26780;SDS011;14366;49.184;8.054;2023-06-14T00:27:50;4.50;;;4.00;;
26780;SDS011;14366;49.184;8.054;2023-06-14T00:33:25;5.72;;;4.22;;
26780;SDS011;14366;49.184;8.054;2023-06-14T00:38:45;6.40;;;4.00;;
26780;SDS011;14366;49.184;8.054;2023-06-14T00:49:08;6.73;;;4.50;;
26780;SDS011;14366;49.184;8.054;2023-06-14T00:54:58;4.50;;;4.10;;
26780;SDS011;14366;49.184;8.054;2023-06-14T01:00:33;5.67;;;4.10;;
26780;SDS011;14366;49.184;8.054;2023-06-14T01:11:01;7.00;;;4.30;;
26780;SDS011;14366;49.184;8.054;2023-06-14T01:16:35;5.60;;;4.37;;
26780;SDS011;14366;49.184;8.054;2023-06-14T01:22:08;5.20;;;3.70;;
26780;SDS011;14366;49.184;8.054;2023-06-14T01:27:45;6.60;;;4.50;;
26780;SDS011;14366;49.184;8.054;2023-06-14T01:33:21;7.50;;;4.03;;
26780;SDS011;14366;49.184;8.054;2023-06-14T01:38:55;8.63;;;4.20;;
26780;SDS011;14366;49.184;8.054;2023-06-14T01:44:32;6.90;;;4.30;;
26780;SDS011;14366;49.184;8.054;2023-06-14T01:50:06;5.98;;;4.18;;
26780;SDS011;14366;49.184;8.054;2023-06-14T01:55:42;4.64;;;3.96;;
26780;SDS011;14366;49.184;8.054;2023-06-14T02:07:19;5.73;;;4.27;;
26780;SDS011;14366;49.184;8.054;2023-06-14T02:12:53;6.80;;;4.25;;
26780;SDS011;14366;49.184;8.054;2023-06-14T02:18:28;4.30;;;3.80;;
26780;SDS011;14366;49.184;8.054;2023-06-14T02:23:50;5.50;;;4.10;;
26780;SDS011;14366;49.184;8.054;2023-06-14T02:29:22;4.73;;;4.23;;
26780;SDS011;14366;49.184;8.054;2023-06-14T02:34:57;6.25;;;4.45;;
26780;SDS011;14366;49.184;8.054;2023-06-14T02:40:20;6.30;;;3.90;;
26780;SDS011;14366;49.184;8.054;2023-06-14T02:45:50;5.87;;;4.00;;
26780;SDS011;14366;49.184;8.054;2023-06-14T02:51:11;7.17;;;4.20;;
26780;SDS011;14366;49.184;8.054;2023-06-14T02:56:34;6.47;;;3.80;;
26780;SDS011;14366;49.184;8.054;2023-06-14T03:02:08;5.90;;;4.60;;
26780;SDS011;14366;49.184;8.054;2023-06-14T03:07:29;6.20;;;4.20;;
26780;SDS011;14366;49.184;8.054;2023-06-14T03:12:52;6.57;;;4.43;;
26780;SDS011;14366;49.184;8.054;2023-06-14T03:18:26;7.33;;;4.07;;
26780;SDS011;14366;49.184;8.054;2023-06-14T03:29:07;6.70;;;4.03;;
26780;SDS011;14366;49.184;8.054;2023-06-14T03:34:41;5.07;;;4.17;;
26780;SDS011;14366;49.184;8.054;2023-06-14T03:45:08;6.85;;;3.90;;
26780;SDS011;14366;49.184;8.054;2023-06-14T03:55:45;4.53;;;4.13;;
26780;SDS011;14366;49.184;8.054;2023-06-14T04:06:11;4.30;;;3.90;;
26780;SDS011;14366;49.184;8.054;2023-06-14T04:16:50;4.23;;;3.83;;
26780;SDS011;14366;49.184;8.054;2023-06-14T04:22:26;4.80;;;3.80;;
26780;SDS011;14366;49.184;8.054;2023-06-14T04:33:06;5.12;;;3.88;;
26780;SDS011;14366;49.184;8.054;2023-06-14T04:43:32;6.20;;;4.10;;
26780;SDS011;14366;49.184;8.054;2023-06-14T04:49:04;8.70;;;4.60;;
26780;SDS011;14366;49.184;8.054;2023-06-14T04:54:39;6.93;;;4.00;;
26780;SDS011;14366;49.184;8.054;2023-06-14T05:00:16;4.30;;;3.55;;
26780;SDS011;14366;49.184;8.054;2023-06-14T05:05:51;6.33;;;4.10;;
26780;SDS011;14366;49.184;8.054;2023-06-14T05:11:09;5.30;;;3.90;;
26780;SDS011;14366;49.184;8.054;2023-06-14T05:16:30;6.70;;;4.47;;
26780;SDS011;14366;49.184;8.054;2023-06-14T05:22:05;9.62;;;4.44;;
26780;SDS011;14366;49.184;8.054;2023-06-14T05:27:25;6.80;;;4.40;;
26780;SDS011;14366;49.184;8.054;2023-06-14T05:33:01;8.10;;;4.47;;
26780;SDS011;14366;49.184;8.054;2023-06-14T05:38:36;7.47;;;4.33;;
26780;SDS011;14366;49.184;8.054;2023-06-14T05:44:11;8.23;;;4.57;;
26780;SDS011;14366;49.184;8.054;2023-06-14T05:49:47;9.80;;;4.70;;
26780;SDS011;14366;49.184;8.054;2023-06-14T05:55:22;12.07;;;5.07;;
26780;SDS011;14366;49.184;8.054;2023-06-14T06:00:40;7.28;;;4.07;;
26780;SDS011;14366;49.184;8.054;2023-06-14T06:06:02;7.73;;;3.97;;
26780;SDS011;14366;49.184;8.054;2023-06-14T06:11:37;5.70;;;4.03;;
26780;SDS011;14366;49.184;8.054;2023-06-14T06:17:12;7.18;;;3.92;;
26780;SDS011;14366;49.184;8.054;2023-06-14T06:22:48;8.50;;;4.20;;
26780;SDS011;14366;49.184;8.054;2023-06-14T06:28:23;6.37;;;3.85;;
26780;SDS011;14366;49.184;8.054;2023-06-14T06:33:58;10.30;;;4.50;;
26780;SDS011;14366;49.184;8.054;2023-06-14T06:39:34;5.35;;;4.32;;
26780;SDS011;14366;49.184;8.054;2023-06-14T06:45:09;7.75;;;4.62;;
26780;SDS011;14366;49.184;8.054;2023-06-14T06:50:30;9.23;;;4.10;;
26780;SDS011;14366;49.184;8.054;2023-06-14T06:56:06;7.35;;;4.10;;
26780;SDS011;14366;49.184;8.054;2023-06-14T07:01:41;8.05;;;4.15;;
26780;SDS011;14366;49.184;8.054;2023-06-14T07:07:17;6.40;;;4.32;;
26780;SDS011;14366;49.184;8.054;2023-06-14T07:12:52;6.40;;;4.37;;
26780;SDS011;14366;49.184;8.054;2023-06-14T07:18:27;6.87;;;4.30;;
26780;SDS011;14366;49.184;8.054;2023-06-14T07:23:48;9.00;;;4.20;;
26780;SDS011;14366;49.184;8.054;2023-06-14T07:29:25;6.60;;;4.28;;
26780;SDS011;14366;49.184;8.054;2023-06-14T07:34:59;7.22;;;4.45;;
26780;SDS011;14366;49.184;8.054;2023-06-14T07:40:32;10.10;;;4.57;;
26780;SDS011;14366;49.184;8.054;2023-06-14T07:46:08;8.20;;;4.55;;
26780;SDS011;14366;49.184;8.054;2023-06-14T07:51:43;8.63;;;4.70;;
26780;SDS011;14366;49.184;8.054;2023-06-14T08:02:24;11.07;;;4.45;;
26780;SDS011;14366;49.184;8.054;2023-06-14T08:07:58;6.60;;;4.50;;
26780;SDS011;14366;49.184;8.054;2023-06-14T08:13:16;6.70;;;4.10;;
26780;SDS011;14366;49.184;8.054;2023-06-14T08:18:39;8.82;;;4.87;;
26780;SDS011;14366;49.184;8.054;2023-06-14T08:24:13;10.15;;;4.10;;
26780;SDS011;14366;49.184;8.054;2023-06-14T08:29:34;8.15;;;4.60;;
26780;SDS011;14366;49.184;8.054;2023-06-14T08:40:19;7.20;;;4.53;;
26780;SDS011;14366;49.184;8.054;2023-06-14T08:45:54;6.20;;;4.50;;
26780;SDS011;14366;49.184;8.054;2023-06-14T08:51:28;9.32;;;4.40;;
26780;SDS011;14366;49.184;8.054;2023-06-14T08:57:06;5.52;;;4.70;;
26780;SDS011;14366;49.184;8.054;2023-06-14T09:02:40;7.90;;;4.65;;
26780;SDS011;14366;49.184;8.054;2023-06-14T09:08:14;8.62;;;4.40;;
26780;SDS011;14366;49.184;8.054;2023-06-14T09:13:49;7.04;;;4.66;;
26780;SDS011;14366;49.184;8.054;2023-06-14T09:19:21;5.55;;;4.35;;
26780;SDS011;14366;49.184;8.054;2023-06-14T09:24:56;6.67;;;4.20;;
26780;SDS011;14366;49.184;8.054;2023-06-14T09:30:19;8.52;;;4.57;;
26780;SDS011;14366;49.184;8.054;2023-06-14T09:40:57;8.18;;;4.85;;
26780;SDS011;14366;49.184;8.054;2023-06-14T09:51:41;6.40;;;4.00;;
26780;SDS011;14366;49.184;8.054;2023-06-14T10:02:05;8.85;;;3.92;;
26780;SDS011;14366;49.184;8.054;2023-06-14T10:08:00;5.60;;;3.46;;
26780;SDS011;14366;49.184;8.054;2023-06-14T10:13:37;6.65;;;3.90;;
26780;SDS011;14366;49.184;8.054;2023-06-14T10:19:13;4.85;;;3.75;;
26780;SDS011;14366;49.184;8.054;2023-06-14T10:24:50;7.80;;;3.34;;
26780;SDS011;14366;49.184;8.054;2023-06-14T10:30:25;5.20;;;3.30;;
26780;SDS011;14366;49.184;8.054;2023-06-14T10:36:10;9.25;;;3.60;;
26780;SDS011;14366;49.184;8.054;2023-06-14T10:41:51;5.28;;;3.20;;
26780;SDS011;14366;49.184;8.054;2023-06-14T10:47:26;7.80;;;3.53;;
26780;SDS011;14366;49.184;8.054;2023-06-14T10:53:03;5.55;;;3.40;;
26780;SDS011;14366;49.184;8.054;2023-06-14T10:58:39;4.90;;;3.40;;
26780;SDS011;14366;49.184;8.054;2023-06-14T11:15:44;4.80;;;3.33;;
26780;SDS011;14366;49.184;8.054;2023-06-14T11:21:16;7.28;;;3.20;;
26780;SDS011;14366;49.184;8.054;2023-06-14T11:26:49;3.35;;;2.90;;
26780;SDS011;14366;49.184;8.054;2023-06-14T11:32:10;6.05;;;3.50;;
26780;SDS011;14366;49.184;8.054;2023-06-14T11:37:47;5.32;;;3.05;;
26780;SDS011;14366;49.184;8.054;2023-06-14T11:43:23;4.40;;;2.60;;
26780;SDS011;14366;49.184;8.054;2023-06-14T11:48:59;5.17;;;3.37;;
26780;SDS011;14366;49.184;8.054;2023-06-14T11:54:34;5.40;;;2.90;;
26780;SDS011;14366;49.184;8.054;2023-06-14T12:00:09;7.78;;;2.95;;
26780;SDS011;14366;49.184;8.054;2023-06-14T12:05:46;5.80;;;3.00;;
26780;SDS011;14366;49.184;8.054;2023-06-14T12:11:21;6.43;;;2.60;;
26780;SDS011;14366;49.184;8.054;2023-06-14T12:17:03;4.95;;;2.65;;
26780;SDS011;14366;49.184;8.054;2023-06-14T12:22:40;5.60;;;2.50;;
26780;SDS011;14366;49.184;8.054;2023-06-14T12:33:21;4.37;;;2.62;;
26780;SDS011;14366;49.184;8.054;2023-06-14T12:38:57;3.10;;;2.80;;
26780;SDS011;14366;49.184;8.054;2023-06-14T12:44:33;5.37;;;2.83;;
26780;SDS011;14366;49.184;8.054;2023-06-14T12:49:53;6.70;;;2.83;;
26780;SDS011;14366;49.184;8.054;2023-06-14T12:55:29;3.15;;;2.70;;
26780;SDS011;14366;49.184;8.054;2023-06-14T13:01:04;5.57;;;2.77;;
26780;SDS011;14366;49.184;8.054;2023-06-14T13:06:40;4.55;;;2.80;;
26780;SDS011;14366;49.184;8.054;2023-06-14T13:12:16;3.00;;;2.68;;
26780;SDS011;14366;49.184;8.054;2023-06-14T13:17:52;2.83;;;2.50;;
26780;SDS011;14366;49.184;8.054;2023-06-14T13:23:27;4.05;;;2.70;;
26780;SDS011;14366;49.184;8.054;2023-06-14T13:29:04;4.40;;;2.80;;
26780;SDS011;14366;49.184;8.054;2023-06-14T13:34:40;5.80;;;2.70;;
26780;SDS011;14366;49.184;8.054;2023-06-14T13:40:15;5.72;;;3.22;;
26780;SDS011;14366;49.184;8.054;2023-06-14T13:45:52;6.95;;;2.80;;
26780;SDS011;14366;49.184;8.054;2023-06-14T13:51:27;3.55;;;2.80;;
26780;SDS011;14366;49.184;8.054;2023-06-14T13:57:02;5.40;;;2.95;;
26780;SDS011;14366;49.184;8.054;2023-06-14T14:02:24;6.05;;;2.85;;
26780;SDS011;14366;49.184;8.054;2023-06-14T14:07:59;4.50;;;3.10;;
26780;SDS011;14366;49.184;8.054;2023-06-14T14:18:40;5.65;;;3.00;;
26780;SDS011;14366;49.184;8.054;2023-06-14T14:24:14;7.22;;;3.15;;
26780;SDS011;14366;49.184;8.054;2023-06-14T14:29:49;4.62;;;2.90;;
26780;SDS011;14366;49.184;8.054;2023-06-14T14:35:11;12.62;;;3.32;;
26780;SDS011;14366;49.184;8.054;2023-06-14T14:40:46;6.35;;;3.00;;
26780;SDS011;14366;49.184;8.054;2023-06-14T14:46:21;4.80;;;2.78;;
26780;SDS011;14366;49.184;8.054;2023-06-14T14:51:43;6.90;;;3.05;;
26780;SDS011;14366;49.184;8.054;2023-06-14T14:57:17;4.78;;;2.97;;
26780;SDS011;14366;49.184;8.054;2023-06-14T15:02:37;5.20;;;2.85;;
26780;SDS011;14366;49.184;8.054;2023-06-14T15:08:14;5.65;;;3.00;;
26780;SDS011;14366;49.184;8.054;2023-06-14T15:13:48;4.45;;;2.95;;
26780;SDS011;14366;49.184;8.054;2023-06-14T15:19:23;3.77;;;3.20;;
26780;SDS011;14366;49.184;8.054;2023-06-14T15:25:00;3.75;;;3.20;;
26780;SDS011;14366;49.184;8.054;2023-06-14T15:30:34;6.80;;;3.10;;
26780;SDS011;14366;49.184;8.054;2023-06-14T15:35:54;4.50;;;2.87;;
26780;SDS011;14366;49.184;8.054;2023-06-14T15:41:16;4.47;;;3.43;;
26780;SDS011;14366;49.184;8.054;2023-06-14T15:46:50;4.43;;;3.00;;
26780;SDS011;14366;49.184;8.054;2023-06-14T15:52:10;4.05;;;2.75;;
26780;SDS011;14366;49.184;8.054;2023-06-14T15:57:32;5.07;;;2.92;;
26780;SDS011;14366;49.184;8.054;2023-06-14T16:03:06;4.53;;;2.65;;
26780;SDS011;14366;49.184;8.054;2023-06-14T16:08:43;6.10;;;3.03;;
26780;SDS011;14366;49.184;8.054;2023-06-14T16:14:18;4.70;;;3.30;;
26780;SDS011;14366;49.184;8.054;2023-06-14T16:19:52;3.10;;;2.80;;
26780;SDS011;14366;49.184;8.054;2023-06-14T16:25:28;6.03;;;2.90;;
26780;SDS011;14366;49.184;8.054;2023-06-14T16:30:47;4.82;;;3.05;;
26780;SDS011;14366;49.184;8.054;2023-06-14T16:36:20;6.00;;;3.28;;
26780;SDS011;14366;49.184;8.054;2023-06-14T16:41:56;4.83;;;2.98;;
26780;SDS011;14366;49.184;8.054;2023-06-14T16:47:18;3.47;;;2.85;;
26780;SDS011;14366;49.184;8.054;2023-06-14T16:57:58;3.80;;;2.95;;
26780;SDS011;14366;49.184;8.054;2023-06-14T17:03:34;5.80;;;2.90;;
26780;SDS011;14366;49.184;8.054;2023-06-14T17:09:09;4.95;;;3.30;;
26780;SDS011;14366;49.184;8.054;2023-06-14T17:14:29;5.20;;;3.08;;
26780;SDS011;14366;49.184;8.054;2023-06-14T17:19:50;5.20;;;3.37;;
26780;SDS011;14366;49.184;8.054;2023-06-14T17:25:25;3.67;;;3.22;;
26780;SDS011;14366;49.184;8.054;2023-06-14T17:30:45;5.12;;;3.12;;
26780;SDS011;14366;49.184;8.054;2023-06-14T17:36:06;6.68;;;3.25;;
26780;SDS011;14366;49.184;8.054;2023-06-14T17:41:41;5.53;;;3.40;;
26780;SDS011;14366;49.184;8.054;2023-06-14T17:47:01;4.90;;;3.33;;
26780;SDS011;14366;49.184;8.054;2023-06-14T17:52:37;4.72;;;2.97;;
26780;SDS011;14366;49.184;8.054;2023-06-14T17:58:09;5.23;;;3.03;;
26780;SDS011;14366;49.184;8.054;2023-06-14T18:03:44;4.00;;;3.00;;
26780;SDS011;14366;49.184;8.054;2023-06-14T18:09:20;4.05;;;3.25;;
26780;SDS011;14366;49.184;8.054;2023-06-14T18:20:00;5.20;;;3.20;;
26780;SDS011;14366;49.184;8.054;2023-06-14T18:25:36;3.47;;;3.17;;
26780;SDS011;14366;49.184;8.054;2023-06-14T18:36:16;3.38;;;3.02;;
26780;SDS011;14366;49.184;8.054;2023-06-14T18:46:57;3.50;;;3.00;;
26780;SDS011;14366;49.184;8.054;2023-06-14T18:52:33;5.94;;;3.02;;
26780;SDS011;14366;49.184;8.054;2023-06-14T19:03:13;3.70;;;3.10;;
26780;SDS011;14366;49.184;8.054;2023-06-14T19:13:53;6.20;;;3.10;;
26780;SDS011;14366;49.184;8.054;2023-06-14T19:19:14;5.25;;;3.78;;
26780;SDS011;14366;49.184;8.054;2023-06-14T19:24:50;7.12;;;3.15;;
26780;SDS011;14366;49.184;8.054;2023-06-14T19:30:10;3.52;;;3.02;;
26780;SDS011;14366;49.184;8.054;2023-06-14T19:35:46;6.34;;;3.28;;
26780;SDS011;14366;49.184;8.054;2023-06-14T19:41:22;5.93;;;3.10;;
26780;SDS011;14366;49.184;8.054;2023-06-14T19:46:58;4.03;;;3.30;;
26780;SDS011;14366;49.184;8.054;2023-06-14T19:52:34;4.10;;;3.12;;
26780;SDS011;14366;49.184;8.054;2023-06-14T19:58:10;3.85;;;2.90;;
26780;SDS011;14366;49.184;8.054;2023-06-14T20:03:30;7.40;;;3.55;;
26780;SDS011;14366;49.184;8.054;2023-06-14T20:08:51;6.27;;;4.10;;
26780;SDS011;14366;49.184;8.054;2023-06-14T20:14:26;5.22;;;3.40;;
26780;SDS011;14366;49.184;8.054;2023-06-14T20:20:01;4.20;;;3.20;;
26780;SDS011;14366;49.184;8.054;2023-06-14T20:25:22;3.95;;;3.33;;
26780;SDS011;14366;49.184;8.054;2023-06-14T20:30:57;3.50;;;3.03;;
26780;SDS011;14366;49.184;8.054;2023-06-14T20:36:17;7.60;;;2.90;;
26780;SDS011;14366;49.184;8.054;2023-06-14T20:41:55;3.90;;;3.42;;
26780;SDS011;14366;49.184;8.054;2023-06-14T20:52:33;4.20;;;3.50;;
26780;SDS011;14366;49.184;8.054;2023-06-14T20:58:11;5.40;;;3.10;;
26780;SDS011;14366;49.184;8.054;2023-06-14T21:03:45;3.67;;;3.00;;
26780;SDS011;14366;49.184;8.054;2023-06-14T21:09:05;3.28;;;2.90;;
26780;SDS011;14366;49.184;8.054;2023-06-14T21:14:27;3.62;;;2.87;;
26780;SDS011;14366;49.184;8.054;2023-06-14T21:20:01;2.75;;;2.50;;
26780;SDS011;14366;49.184;8.054;2023-06-14T21:25:36;4.47;;;2.77;;
26780;SDS011;14366;49.184;8.054;2023-06-14T21:31:13;4.50;;;2.60;;
26780;SDS011;14366;49.184;8.054;2023-06-14T21:36:47;5.32;;;3.20;;
26780;SDS011;14366;49.184;8.054;2023-06-14T21:42:22;3.10;;;2.50;;
26780;SDS011;14366;49.184;8.054;2023-06-14T21:47:44;3.00;;;2.70;;
26780;SDS011;14366;49.184;8.054;2023-06-14T21:53:18;2.75;;;2.55;;
26780;SDS011;14366;49.184;8.054;2023-06-14T21:58:54;4.03;;;2.60;;
26780;SDS011;14366;49.184;8.054;2023-06-14T22:04:16;4.82;;;3.12;;
26780;SDS011;14366;49.184;8.054;2023-06-14T22:09:50;5.00;;;3.00;;
26780;SDS011;14366;49.184;8.054;2023-06-14T22:15:26;4.93;;;2.80;;
26780;SDS011;14366;49.184;8.054;2023-06-14T22:26:07;3.08;;;2.60;;
26780;SDS011;14366;49.184;8.054;2023-06-14T22:31:42;5.15;;;3.05;;
26780;SDS011;14366;49.184;8.054;2023-06-14T22:37:17;3.22;;;2.70;;
26780;SDS011;14366;49.184;8.054;2023-06-14T22:42:57;4.62;;;2.90;;
26780;SDS011;14366;49.184;8.054;2023-06-14T22:48:33;4.82;;;3.08;;
26780;SDS011;14366;49.184;8.054;2023-06-14T22:54:09;3.25;;;2.90;;
26780;SDS011;14366;49.184;8.054;2023-06-14T22:59:45;2.87;;;2.58;;
26780;SDS011;14366;49.184;8.054;2023-06-14T23:05:20;6.00;;;2.70;;
26780;SDS011;14366;49.184;8.054;2023-06-14T23:10:56;2.96;;;2.60;;
26780;SDS011;14366;49.184;8.054;2023-06-14T23:16:18;3.43;;;2.80;;
26780;SDS011;14366;49.184;8.054;2023-06-14T23:21:53;2.97;;;2.67;;
26780;SDS011;14366;49.184;8.054;2023-06-14T23:27:14;4.50;;;2.75;;
26780;SDS011;14366;49.184;8.054;2023-06-14T23:32:35;3.70;;;2.70;;
26780;SDS011;14366;49.184;8.054;2023-06-14T23:38:10;3.17;;;2.80;;
26780;SDS011;14366;49.184;8.054;2023-06-14T23:43:31;4.70;;;2.80;;
26780;SDS011;14366;49.184;8.054;2023-06-14T23:48:52;3.72;;;2.60;;
26780;SDS011;14366;49.184;8.054;2023-06-14T23:54:28;3.33;;;3.03;;
